sensor_id;sensor_type;location;lat;lon;timestamp;temperature;humidity
6666;DHT22;3369;49.906;8.598;2024-02-14T00:01:23;6.30;99.90
6666;DHT22;3369;49.906;8.598;2024-02-14T00:03:49;6.30;99.90
6666;DHT22;3369;49.906;8.598;2024-02-14T00:06:14;6.30;99.90
6666;DHT22;3369;49.906;8.598;2024-02-14T00:08:40;6.30;99.90
6666;DHT22;3369;49.906;8.598;2024-02-14T00:11:06;6.30;99.90
6666;DHT22;3369;49.906;8.598;2024-02-14T00:13:32;6.40;99.90
6666;DHT22;3369;49.906;8.598;2024-02-14T00:16:00;6.40;99.90
6666;DHT22;3369;49.906;8.598;2024-02-14T00:18:26;6.40;99.90
6666;DHT22;3369;49.906;8.598;2024-02-14T00:20:51;6.50;99.90
6666;DHT22;3369;49.906;8.598;2024-02-14T00:23:17;6.60;99.90
6666;DHT22;3369;49.906;8.598;2024-02-14T00:25:43;6.60;99.90
6666;DHT22;3369;49.906;8.598;2024-02-14T00:28:08;6.60;99.90
6666;DHT22;3369;49.906;8.598;2024-02-14T00:30:34;6.70;99.90
6666;DHT22;3369;49.906;8.598;2024-02-14T00:33:00;6.70;99.90
6666;DHT22;3369;49.906;8.598;2024-02-14T00:35:25;6.70;99.90
6666;DHT22;3369;49.906;8.598;2024-02-14T00:37:51;6.70;99.90
6666;DHT22;3369;49.906;8.598;2024-02-14T00:40:17;6.70;99.90
6666;DHT22;3369;49.906;8.598;2024-02-14T00:42:43;6.70;99.90
6666;DHT22;3369;49.906;8.598;2024-02-14T00:45:09;6.70;99.90
6666;DHT22;3369;49.906;8.598;2024-02-14T00:47:35;6.70;99.90
6666;DHT22;3369;49.906;8.598;2024-02-14T00:50:04;6.70;99.90
6666;DHT22;3369;49.906;8.598;2024-02-14T00:52:29;6.80;99.90
6666;DHT22;3369;49.906;8.598;2024-02-14T00:54:55;6.80;99.90
6666;DHT22;3369;49.906;8.598;2024-02-14T00:57:21;6.70;99.90
6666;DHT22;3369;49.906;8.598;2024-02-14T00:59:54;6.80;99.90
6666;DHT22;3369;49.906;8.598;2024-02-14T01:02:22;6.80;99.90
6666;DHT22;3369;49.906;8.598;2024-02-14T01:04:47;6.80;99.90
6666;DHT22;3369;49.906;8.598;2024-02-14T01:07:13;6.80;99.90
6666;DHT22;3369;49.906;8.598;2024-02-14T01:09:38;6.80;99.90
6666;DHT22;3369;49.906;8.598;2024-02-14T01:12:05;6.70;99.90
6666;DHT22;3369;49.906;8.598;2024-02-14T01:14:31;6.70;99.90
6666;DHT22;3369;49.906;8.598;2024-02-14T01:16:57;6.70;99.90
6666;DHT22;3369;49.906;8.598;2024-02-14T01:19:22;6.70;99.90
6666;DHT22;3369;49.906;8.598;2024-02-14T01:21:49;6.70;99.90
6666;DHT22;3369;49.906;8.598;2024-02-14T01:24:15;6.60;99.90
6666;DHT22;3369;49.906;8.598;2024-02-14T01:26:41;6.50;99.90
6666;DHT22;3369;49.906;8.598;2024-02-14T01:29:07;6.50;99.90
6666;DHT22;3369;49.906;8.598;2024-02-14T01:31:33;6.50;99.90
6666;DHT22;3369;49.906;8.598;2024-02-14T01:33:59;6.50;99.90
6666;DHT22;3369;49.906;8.598;2024-02-14T01:36:28;6.50;99.90
6666;DHT22;3369;49.906;8.598;2024-02-14T01:38:54;6.50;99.90
6666;DHT22;3369;49.906;8.598;2024-02-14T01:41:19;6.50;99.90
6666;DHT22;3369;49.906;8.598;2024-02-14T01:43:47;6.50;99.90
6666;DHT22;3369;49.906;8.598;2024-02-14T01:46:12;6.50;99.90
6666;DHT22;3369;49.906;8.598;2024-02-14T01:48:39;6.50;99.90
6666;DHT22;3369;49.906;8.598;2024-02-14T01:51:06;6.50;99.90
6666;DHT22;3369;49.906;8.598;2024-02-14T01:53:36;6.60;99.90
6666;DHT22;3369;49.906;8.598;2024-02-14T01:56:02;6.60;99.90
6666;DHT22;3369;49.906;8.598;2024-02-14T01:58:30;6.70;99.90
6666;DHT22;3369;49.906;8.598;2024-02-14T02:00:56;6.70;99.90
6666;DHT22;3369;49.906;8.598;2024-02-14T02:03:25;6.70;99.90
6666;DHT22;3369;49.906;8.598;2024-02-14T02:05:55;6.70;99.90
6666;DHT22;3369;49.906;8.598;2024-02-14T02:08:21;6.80;99.90
6666;DHT22;3369;49.906;8.598;2024-02-14T02:10:47;6.80;99.90
6666;DHT22;3369;49.906;8.598;2024-02-14T02:13:12;6.80;99.90
6666;DHT22;3369;49.906;8.598;2024-02-14T02:15:40;6.80;99.90
6666;DHT22;3369;49.906;8.598;2024-02-14T02:18:10;6.80;99.90
6666;DHT22;3369;49.906;8.598;2024-02-14T02:20:36;6.80;99.90
6666;DHT22;3369;49.906;8.598;2024-02-14T02:23:01;6.80;99.90
6666;DHT22;3369;49.906;8.598;2024-02-14T02:25:28;6.80;99.90
6666;DHT22;3369;49.906;8.598;2024-02-14T02:27:53;6.70;99.90
6666;DHT22;3369;49.906;8.598;2024-02-14T02:30:22;6.70;99.90
6666;DHT22;3369;49.906;8.598;2024-02-14T02:32:48;6.70;99.90
6666;DHT22;3369;49.906;8.598;2024-02-14T02:35:13;6.60;99.90
6666;DHT22;3369;49.906;8.598;2024-02-14T02:37:39;6.60;99.90
6666;DHT22;3369;49.906;8.598;2024-02-14T02:40:05;6.60;99.90
6666;DHT22;3369;49.906;8.598;2024-02-14T02:42:31;6.60;99.90
6666;DHT22;3369;49.906;8.598;2024-02-14T02:44:56;6.50;99.90
6666;DHT22;3369;49.906;8.598;2024-02-14T02:47:22;6.60;99.90
6666;DHT22;3369;49.906;8.598;2024-02-14T02:49:47;6.60;99.90
6666;DHT22;3369;49.906;8.598;2024-02-14T02:52:13;6.60;99.90
6666;DHT22;3369;49.906;8.598;2024-02-14T02:54:39;6.60;99.90
6666;DHT22;3369;49.906;8.598;2024-02-14T02:57:10;6.60;99.90
6666;DHT22;3369;49.906;8.598;2024-02-14T02:59:36;6.70;99.90
6666;DHT22;3369;49.906;8.598;2024-02-14T03:02:02;6.70;99.90
6666;DHT22;3369;49.906;8.598;2024-02-14T03:04:28;6.70;99.90
6666;DHT22;3369;49.906;8.598;2024-02-14T03:06:54;6.70;99.90
6666;DHT22;3369;49.906;8.598;2024-02-14T03:09:20;6.70;99.90
6666;DHT22;3369;49.906;8.598;2024-02-14T03:11:47;6.70;99.90
6666;DHT22;3369;49.906;8.598;2024-02-14T03:14:13;6.80;99.90
6666;DHT22;3369;49.906;8.598;2024-02-14T03:16:39;6.80;99.90
6666;DHT22;3369;49.906;8.598;2024-02-14T03:19:05;6.90;99.90
6666;DHT22;3369;49.906;8.598;2024-02-14T03:21:31;6.90;99.90
6666;DHT22;3369;49.906;8.598;2024-02-14T03:24:01;6.90;99.90
6666;DHT22;3369;49.906;8.598;2024-02-14T03:26:28;6.90;99.90
6666;DHT22;3369;49.906;8.598;2024-02-14T03:28:54;6.90;99.90
6666;DHT22;3369;49.906;8.598;2024-02-14T03:31:20;7.00;99.90
6666;DHT22;3369;49.906;8.598;2024-02-14T03:33:46;7.00;99.90
6666;DHT22;3369;49.906;8.598;2024-02-14T03:36:11;7.00;99.90
6666;DHT22;3369;49.906;8.598;2024-02-14T03:38:37;7.10;99.90
6666;DHT22;3369;49.906;8.598;2024-02-14T03:41:05;7.10;99.90
6666;DHT22;3369;49.906;8.598;2024-02-14T03:43:30;7.10;99.90
6666;DHT22;3369;49.906;8.598;2024-02-14T03:45:57;7.10;99.90
6666;DHT22;3369;49.906;8.598;2024-02-14T03:48:23;7.10;99.90
6666;DHT22;3369;49.906;8.598;2024-02-14T03:50:48;7.10;99.90
6666;DHT22;3369;49.906;8.598;2024-02-14T03:53:14;7.10;99.90
6666;DHT22;3369;49.906;8.598;2024-02-14T03:55:40;7.10;99.90
6666;DHT22;3369;49.906;8.598;2024-02-14T03:58:06;7.20;99.90
6666;DHT22;3369;49.906;8.598;2024-02-14T04:00:34;7.10;99.90
6666;DHT22;3369;49.906;8.598;2024-02-14T04:03:01;7.10;99.90
6666;DHT22;3369;49.906;8.598;2024-02-14T04:05:28;7.10;99.90
6666;DHT22;3369;49.906;8.598;2024-02-14T04:07:54;7.10;99.90
6666;DHT22;3369;49.906;8.598;2024-02-14T04:10:21;7.10;99.90
6666;DHT22;3369;49.906;8.598;2024-02-14T04:12:47;7.20;99.90
6666;DHT22;3369;49.906;8.598;2024-02-14T04:15:12;7.20;99.90
6666;DHT22;3369;49.906;8.598;2024-02-14T04:17:39;7.20;99.90
6666;DHT22;3369;49.906;8.598;2024-02-14T04:20:05;7.30;99.90
6666;DHT22;3369;49.906;8.598;2024-02-14T04:22:31;7.30;99.90
6666;DHT22;3369;49.906;8.598;2024-02-14T04:24:58;7.30;99.90
6666;DHT22;3369;49.906;8.598;2024-02-14T04:27:24;7.30;99.90
6666;DHT22;3369;49.906;8.598;2024-02-14T04:29:50;7.40;99.90
6666;DHT22;3369;49.906;8.598;2024-02-14T04:32:15;7.40;99.90
6666;DHT22;3369;49.906;8.598;2024-02-14T04:34:42;7.40;99.90
6666;DHT22;3369;49.906;8.598;2024-02-14T04:37:09;7.40;99.90
6666;DHT22;3369;49.906;8.598;2024-02-14T04:39:39;7.40;99.90
6666;DHT22;3369;49.906;8.598;2024-02-14T04:42:05;7.40;99.90
6666;DHT22;3369;49.906;8.598;2024-02-14T04:44:32;7.40;99.90
6666;DHT22;3369;49.906;8.598;2024-02-14T04:46:58;7.40;99.90
6666;DHT22;3369;49.906;8.598;2024-02-14T04:49:24;7.40;99.90
6666;DHT22;3369;49.906;8.598;2024-02-14T04:51:53;7.40;99.90
6666;DHT22;3369;49.906;8.598;2024-02-14T04:54:19;7.50;99.90
6666;DHT22;3369;49.906;8.598;2024-02-14T04:56:44;7.50;99.90
6666;DHT22;3369;49.906;8.598;2024-02-14T04:59:13;7.50;99.90
6666;DHT22;3369;49.906;8.598;2024-02-14T05:01:39;7.40;99.90
6666;DHT22;3369;49.906;8.598;2024-02-14T05:04:06;7.50;99.90
6666;DHT22;3369;49.906;8.598;2024-02-14T05:06:32;7.50;99.90
6666;DHT22;3369;49.906;8.598;2024-02-14T05:08:58;7.50;99.90
6666;DHT22;3369;49.906;8.598;2024-02-14T05:11:24;7.50;99.90
6666;DHT22;3369;49.906;8.598;2024-02-14T05:13:50;7.50;99.90
6666;DHT22;3369;49.906;8.598;2024-02-14T05:16:19;7.50;99.90
6666;DHT22;3369;49.906;8.598;2024-02-14T05:18:45;7.50;99.90
6666;DHT22;3369;49.906;8.598;2024-02-14T05:21:11;7.50;99.90
6666;DHT22;3369;49.906;8.598;2024-02-14T05:23:37;7.50;99.90
6666;DHT22;3369;49.906;8.598;2024-02-14T05:26:03;7.50;99.90
6666;DHT22;3369;49.906;8.598;2024-02-14T05:28:29;7.50;99.90
6666;DHT22;3369;49.906;8.598;2024-02-14T05:30:56;7.50;99.90
6666;DHT22;3369;49.906;8.598;2024-02-14T05:33:21;7.50;99.90
6666;DHT22;3369;49.906;8.598;2024-02-14T05:35:51;7.50;99.90
6666;DHT22;3369;49.906;8.598;2024-02-14T05:38:17;7.50;99.90
6666;DHT22;3369;49.906;8.598;2024-02-14T05:40:45;7.40;99.90
6666;DHT22;3369;49.906;8.598;2024-02-14T05:43:11;7.50;99.90
6666;DHT22;3369;49.906;8.598;2024-02-14T05:45:36;7.40;99.90
6666;DHT22;3369;49.906;8.598;2024-02-14T05:48:02;7.40;99.90
6666;DHT22;3369;49.906;8.598;2024-02-14T05:50:28;7.40;99.90
6666;DHT22;3369;49.906;8.598;2024-02-14T05:52:54;7.40;99.90
6666;DHT22;3369;49.906;8.598;2024-02-14T05:55:21;7.30;99.90
6666;DHT22;3369;49.906;8.598;2024-02-14T05:57:46;7.40;99.90
6666;DHT22;3369;49.906;8.598;2024-02-14T06:00:12;7.30;99.90
6666;DHT22;3369;49.906;8.598;2024-02-14T06:02:38;7.30;99.90
6666;DHT22;3369;49.906;8.598;2024-02-14T06:05:06;7.40;99.90
6666;DHT22;3369;49.906;8.598;2024-02-14T06:07:35;7.40;99.90
6666;DHT22;3369;49.906;8.598;2024-02-14T06:10:01;7.40;99.90
6666;DHT22;3369;49.906;8.598;2024-02-14T06:12:26;7.40;99.90
6666;DHT22;3369;49.906;8.598;2024-02-14T06:14:52;7.40;99.90
6666;DHT22;3369;49.906;8.598;2024-02-14T06:17:18;7.40;99.90
6666;DHT22;3369;49.906;8.598;2024-02-14T06:19:43;7.40;99.90
6666;DHT22;3369;49.906;8.598;2024-02-14T06:22:09;7.50;99.90
6666;DHT22;3369;49.906;8.598;2024-02-14T06:24:36;7.50;99.90
6666;DHT22;3369;49.906;8.598;2024-02-14T06:27:01;7.50;99.90
6666;DHT22;3369;49.906;8.598;2024-02-14T06:29:27;7.50;99.90
6666;DHT22;3369;49.906;8.598;2024-02-14T06:31:52;7.40;99.90
6666;DHT22;3369;49.906;8.598;2024-02-14T06:34:19;7.40;99.90
6666;DHT22;3369;49.906;8.598;2024-02-14T06:36:46;7.40;99.90
6666;DHT22;3369;49.906;8.598;2024-02-14T06:39:12;7.40;99.90
6666;DHT22;3369;49.906;8.598;2024-02-14T06:41:38;7.40;99.90
6666;DHT22;3369;49.906;8.598;2024-02-14T06:44:04;7.40;99.90
6666;DHT22;3369;49.906;8.598;2024-02-14T06:46:30;7.30;99.90
6666;DHT22;3369;49.906;8.598;2024-02-14T06:48:56;7.30;99.90
6666;DHT22;3369;49.906;8.598;2024-02-14T06:51:22;7.40;99.90
6666;DHT22;3369;49.906;8.598;2024-02-14T06:53:49;7.40;99.90
6666;DHT22;3369;49.906;8.598;2024-02-14T06:56:16;7.40;99.90
6666;DHT22;3369;49.906;8.598;2024-02-14T06:58:42;7.50;99.90
6666;DHT22;3369;49.906;8.598;2024-02-14T07:01:07;7.50;99.90
6666;DHT22;3369;49.906;8.598;2024-02-14T07:03:33;7.50;99.90
6666;DHT22;3369;49.906;8.598;2024-02-14T07:05:59;7.50;99.90
6666;DHT22;3369;49.906;8.598;2024-02-14T07:08:25;7.50;99.90
6666;DHT22;3369;49.906;8.598;2024-02-14T07:10:54;7.50;99.90
6666;DHT22;3369;49.906;8.598;2024-02-14T07:13:20;7.60;99.90
6666;DHT22;3369;49.906;8.598;2024-02-14T07:15:46;7.60;99.90
6666;DHT22;3369;49.906;8.598;2024-02-14T07:18:11;7.60;99.90
6666;DHT22;3369;49.906;8.598;2024-02-14T07:20:37;7.60;99.90
6666;DHT22;3369;49.906;8.598;2024-02-14T07:23:03;7.60;99.90
6666;DHT22;3369;49.906;8.598;2024-02-14T07:25:29;7.60;99.90
6666;DHT22;3369;49.906;8.598;2024-02-14T07:27:55;7.60;99.90
6666;DHT22;3369;49.906;8.598;2024-02-14T07:30:20;7.60;99.90
6666;DHT22;3369;49.906;8.598;2024-02-14T07:32:46;7.60;99.90
6666;DHT22;3369;49.906;8.598;2024-02-14T07:35:12;7.60;99.90
6666;DHT22;3369;49.906;8.598;2024-02-14T07:37:39;7.60;99.90
6666;DHT22;3369;49.906;8.598;2024-02-14T07:40:04;7.70;99.90
6666;DHT22;3369;49.906;8.598;2024-02-14T07:42:31;7.70;99.90
6666;DHT22;3369;49.906;8.598;2024-02-14T07:44:57;7.80;99.90
6666;DHT22;3369;49.906;8.598;2024-02-14T07:47:22;7.80;99.90
6666;DHT22;3369;49.906;8.598;2024-02-14T07:49:48;7.80;99.90
6666;DHT22;3369;49.906;8.598;2024-02-14T07:52:14;7.90;99.90
6666;DHT22;3369;49.906;8.598;2024-02-14T07:54:39;7.80;99.90
6666;DHT22;3369;49.906;8.598;2024-02-14T07:57:05;7.90;99.90
6666;DHT22;3369;49.906;8.598;2024-02-14T07:59:34;7.80;99.90
6666;DHT22;3369;49.906;8.598;2024-02-14T08:01:59;7.80;99.90
6666;DHT22;3369;49.906;8.598;2024-02-14T08:04:26;7.90;99.90
6666;DHT22;3369;49.906;8.598;2024-02-14T08:06:52;7.90;99.90
6666;DHT22;3369;49.906;8.598;2024-02-14T08:09:17;7.80;99.90
6666;DHT22;3369;49.906;8.598;2024-02-14T08:11:43;7.90;99.90
6666;DHT22;3369;49.906;8.598;2024-02-14T08:14:09;7.90;99.90
6666;DHT22;3369;49.906;8.598;2024-02-14T08:16:34;7.90;99.90
6666;DHT22;3369;49.906;8.598;2024-02-14T08:19:01;7.80;99.90
6666;DHT22;3369;49.906;8.598;2024-02-14T08:21:28;7.80;99.90
6666;DHT22;3369;49.906;8.598;2024-02-14T08:23:54;7.80;99.90
6666;DHT22;3369;49.906;8.598;2024-02-14T08:26:21;7.90;99.90
6666;DHT22;3369;49.906;8.598;2024-02-14T08:28:48;7.90;99.90
6666;DHT22;3369;49.906;8.598;2024-02-14T08:31:14;7.90;99.90
6666;DHT22;3369;49.906;8.598;2024-02-14T08:33:39;7.90;99.90
6666;DHT22;3369;49.906;8.598;2024-02-14T08:36:06;8.00;99.90
6666;DHT22;3369;49.906;8.598;2024-02-14T08:38:32;8.00;99.90
6666;DHT22;3369;49.906;8.598;2024-02-14T08:40:58;8.00;99.90
6666;DHT22;3369;49.906;8.598;2024-02-14T08:43:24;8.00;99.90
6666;DHT22;3369;49.906;8.598;2024-02-14T08:45:54;8.10;99.90
6666;DHT22;3369;49.906;8.598;2024-02-14T08:48:20;8.10;99.90
6666;DHT22;3369;49.906;8.598;2024-02-14T08:50:45;8.20;99.90
6666;DHT22;3369;49.906;8.598;2024-02-14T08:53:12;8.20;99.90
6666;DHT22;3369;49.906;8.598;2024-02-14T08:55:42;8.20;99.90
6666;DHT22;3369;49.906;8.598;2024-02-14T08:58:08;8.20;99.90
6666;DHT22;3369;49.906;8.598;2024-02-14T09:00:37;8.20;99.90
6666;DHT22;3369;49.906;8.598;2024-02-14T09:03:04;8.20;99.90
6666;DHT22;3369;49.906;8.598;2024-02-14T09:05:30;8.30;99.90
6666;DHT22;3369;49.906;8.598;2024-02-14T09:07:55;8.30;99.90
6666;DHT22;3369;49.906;8.598;2024-02-14T09:10:21;8.30;99.90
6666;DHT22;3369;49.906;8.598;2024-02-14T09:12:47;8.30;99.90
6666;DHT22;3369;49.906;8.598;2024-02-14T09:15:13;8.30;99.90
6666;DHT22;3369;49.906;8.598;2024-02-14T09:17:39;8.30;99.90
6666;DHT22;3369;49.906;8.598;2024-02-14T09:20:09;8.30;99.90
6666;DHT22;3369;49.906;8.598;2024-02-14T09:22:35;8.30;99.90
6666;DHT22;3369;49.906;8.598;2024-02-14T09:25:01;8.40;99.90
6666;DHT22;3369;49.906;8.598;2024-02-14T09:27:30;8.40;99.90
6666;DHT22;3369;49.906;8.598;2024-02-14T09:29:55;8.50;99.90
6666;DHT22;3369;49.906;8.598;2024-02-14T09:32:21;8.50;99.90
6666;DHT22;3369;49.906;8.598;2024-02-14T09:34:47;8.50;99.90
6666;DHT22;3369;49.906;8.598;2024-02-14T09:37:12;8.50;99.90
6666;DHT22;3369;49.906;8.598;2024-02-14T09:39:38;8.50;99.90
6666;DHT22;3369;49.906;8.598;2024-02-14T09:42:08;8.50;99.90
6666;DHT22;3369;49.906;8.598;2024-02-14T09:44:35;8.60;99.90
6666;DHT22;3369;49.906;8.598;2024-02-14T09:47:03;8.60;99.90
6666;DHT22;3369;49.906;8.598;2024-02-14T09:49:31;8.60;99.90
6666;DHT22;3369;49.906;8.598;2024-02-14T09:51:57;8.60;99.90
6666;DHT22;3369;49.906;8.598;2024-02-14T09:54:24;8.60;99.90
6666;DHT22;3369;49.906;8.598;2024-02-14T09:56:52;8.70;99.90
6666;DHT22;3369;49.906;8.598;2024-02-14T09:59:22;8.70;99.90
6666;DHT22;3369;49.906;8.598;2024-02-14T10:01:48;8.80;99.90
6666;DHT22;3369;49.906;8.598;2024-02-14T10:04:16;8.80;99.90
6666;DHT22;3369;49.906;8.598;2024-02-14T10:06:43;8.80;99.90
6666;DHT22;3369;49.906;8.598;2024-02-14T10:09:08;8.70;99.90
6666;DHT22;3369;49.906;8.598;2024-02-14T10:11:35;8.70;99.90
6666;DHT22;3369;49.906;8.598;2024-02-14T10:14:02;8.80;99.90
6666;DHT22;3369;49.906;8.598;2024-02-14T10:16:29;8.90;99.90
6666;DHT22;3369;49.906;8.598;2024-02-14T10:18:55;8.90;99.90
6666;DHT22;3369;49.906;8.598;2024-02-14T10:21:21;8.90;99.90
6666;DHT22;3369;49.906;8.598;2024-02-14T10:23:49;9.00;99.90
6666;DHT22;3369;49.906;8.598;2024-02-14T10:26:18;9.00;99.90
6666;DHT22;3369;49.906;8.598;2024-02-14T10:28:44;9.10;99.90
6666;DHT22;3369;49.906;8.598;2024-02-14T10:31:12;9.20;99.90
6666;DHT22;3369;49.906;8.598;2024-02-14T10:33:38;9.30;99.90
6666;DHT22;3369;49.906;8.598;2024-02-14T10:36:08;9.30;99.90
6666;DHT22;3369;49.906;8.598;2024-02-14T10:38:34;9.40;99.90
6666;DHT22;3369;49.906;8.598;2024-02-14T10:41:01;9.40;99.90
6666;DHT22;3369;49.906;8.598;2024-02-14T10:43:27;9.40;99.90
6666;DHT22;3369;49.906;8.598;2024-02-14T10:45:59;9.40;99.90
6666;DHT22;3369;49.906;8.598;2024-02-14T10:48:28;9.50;99.90
6666;DHT22;3369;49.906;8.598;2024-02-14T10:50:59;9.50;99.90
6666;DHT22;3369;49.906;8.598;2024-02-14T10:53:29;9.60;99.90
6666;DHT22;3369;49.906;8.598;2024-02-14T10:55:57;9.60;99.90
6666;DHT22;3369;49.906;8.598;2024-02-14T10:58:24;9.60;99.90
6666;DHT22;3369;49.906;8.598;2024-02-14T11:00:50;9.50;99.90
6666;DHT22;3369;49.906;8.598;2024-02-14T11:03:17;9.50;99.90
6666;DHT22;3369;49.906;8.598;2024-02-14T11:05:47;9.60;99.90
6666;DHT22;3369;49.906;8.598;2024-02-14T11:08:19;9.70;99.90
6666;DHT22;3369;49.906;8.598;2024-02-14T11:10:54;9.70;99.90
6666;DHT22;3369;49.906;8.598;2024-02-14T11:13:21;9.70;99.90
6666;DHT22;3369;49.906;8.598;2024-02-14T11:15:51;9.80;99.90
6666;DHT22;3369;49.906;8.598;2024-02-14T11:18:29;9.90;99.90
6666;DHT22;3369;49.906;8.598;2024-02-14T11:20:56;10.00;99.90
6666;DHT22;3369;49.906;8.598;2024-02-14T11:23:23;10.00;99.90
6666;DHT22;3369;49.906;8.598;2024-02-14T11:25:49;10.10;99.90
6666;DHT22;3369;49.906;8.598;2024-02-14T11:28:16;10.10;99.90
6666;DHT22;3369;49.906;8.598;2024-02-14T11:30:42;10.20;99.90
6666;DHT22;3369;49.906;8.598;2024-02-14T11:33:15;10.20;99.90
6666;DHT22;3369;49.906;8.598;2024-02-14T11:35:41;10.30;99.90
6666;DHT22;3369;49.906;8.598;2024-02-14T11:38:08;10.50;99.90
6666;DHT22;3369;49.906;8.598;2024-02-14T11:40:35;10.50;99.90
6666;DHT22;3369;49.906;8.598;2024-02-14T11:43:00;10.50;99.90
6666;DHT22;3369;49.906;8.598;2024-02-14T11:45:27;10.60;99.90
6666;DHT22;3369;49.906;8.598;2024-02-14T11:47:53;10.60;99.90
6666;DHT22;3369;49.906;8.598;2024-02-14T11:50:20;10.60;99.90
6666;DHT22;3369;49.906;8.598;2024-02-14T11:52:46;10.60;99.90
6666;DHT22;3369;49.906;8.598;2024-02-14T11:55:12;10.60;99.90
6666;DHT22;3369;49.906;8.598;2024-02-14T11:57:41;10.70;99.90
6666;DHT22;3369;49.906;8.598;2024-02-14T12:00:08;10.80;99.90
6666;DHT22;3369;49.906;8.598;2024-02-14T12:02:33;10.70;99.90
6666;DHT22;3369;49.906;8.598;2024-02-14T12:05:01;10.70;99.90
6666;DHT22;3369;49.906;8.598;2024-02-14T12:07:30;10.80;99.90
6666;DHT22;3369;49.906;8.598;2024-02-14T12:09:56;10.70;99.90
6666;DHT22;3369;49.906;8.598;2024-02-14T12:12:22;10.80;99.90
6666;DHT22;3369;49.906;8.598;2024-02-14T12:14:54;10.80;99.90
6666;DHT22;3369;49.906;8.598;2024-02-14T12:17:20;10.70;99.90
6666;DHT22;3369;49.906;8.598;2024-02-14T12:19:47;10.60;99.90
6666;DHT22;3369;49.906;8.598;2024-02-14T12:22:15;10.70;99.90
6666;DHT22;3369;49.906;8.598;2024-02-14T12:24:46;10.70;99.90
6666;DHT22;3369;49.906;8.598;2024-02-14T12:27:18;10.60;99.90
6666;DHT22;3369;49.906;8.598;2024-02-14T12:29:46;10.70;99.90
6666;DHT22;3369;49.906;8.598;2024-02-14T12:32:16;10.70;99.90
6666;DHT22;3369;49.906;8.598;2024-02-14T12:34:44;10.60;99.90
6666;DHT22;3369;49.906;8.598;2024-02-14T12:37:10;10.60;99.90
6666;DHT22;3369;49.906;8.598;2024-02-14T12:39:37;10.70;99.90
6666;DHT22;3369;49.906;8.598;2024-02-14T12:42:03;10.70;99.90
6666;DHT22;3369;49.906;8.598;2024-02-14T12:44:29;10.70;99.90
6666;DHT22;3369;49.906;8.598;2024-02-14T12:46:55;10.80;99.90
6666;DHT22;3369;49.906;8.598;2024-02-14T12:49:20;10.80;99.90
6666;DHT22;3369;49.906;8.598;2024-02-14T12:51:46;10.80;99.90
6666;DHT22;3369;49.906;8.598;2024-02-14T12:54:12;10.90;99.90
6666;DHT22;3369;49.906;8.598;2024-02-14T12:56:40;10.90;99.90
6666;DHT22;3369;49.906;8.598;2024-02-14T12:59:05;11.00;99.90
6666;DHT22;3369;49.906;8.598;2024-02-14T13:01:32;10.90;99.90
6666;DHT22;3369;49.906;8.598;2024-02-14T13:03:57;10.90;99.90
6666;DHT22;3369;49.906;8.598;2024-02-14T13:06:24;11.00;99.90
6666;DHT22;3369;49.906;8.598;2024-02-14T13:08:50;10.90;99.90
6666;DHT22;3369;49.906;8.598;2024-02-14T13:11:16;10.90;99.90
6666;DHT22;3369;49.906;8.598;2024-02-14T13:13:41;10.90;99.90
6666;DHT22;3369;49.906;8.598;2024-02-14T13:16:08;10.90;99.90
6666;DHT22;3369;49.906;8.598;2024-02-14T13:18:33;11.00;99.90
6666;DHT22;3369;49.906;8.598;2024-02-14T13:21:00;10.90;99.90
6666;DHT22;3369;49.906;8.598;2024-02-14T13:23:26;11.00;99.90
6666;DHT22;3369;49.906;8.598;2024-02-14T13:25:52;11.00;99.90
6666;DHT22;3369;49.906;8.598;2024-02-14T13:28:18;10.90;99.90
6666;DHT22;3369;49.906;8.598;2024-02-14T13:30:44;11.00;99.90
6666;DHT22;3369;49.906;8.598;2024-02-14T13:33:10;10.90;99.90
6666;DHT22;3369;49.906;8.598;2024-02-14T13:35:37;10.80;99.90
6666;DHT22;3369;49.906;8.598;2024-02-14T13:38:07;10.80;99.90
6666;DHT22;3369;49.906;8.598;2024-02-14T13:40:35;10.70;99.90
6666;DHT22;3369;49.906;8.598;2024-02-14T13:43:00;10.60;99.90
6666;DHT22;3369;49.906;8.598;2024-02-14T13:45:26;10.60;99.90
6666;DHT22;3369;49.906;8.598;2024-02-14T13:48:03;10.60;99.90
6666;DHT22;3369;49.906;8.598;2024-02-14T13:50:33;10.50;99.90
6666;DHT22;3369;49.906;8.598;2024-02-14T13:52:58;10.50;99.90
6666;DHT22;3369;49.906;8.598;2024-02-14T13:55:24;10.50;99.90
6666;DHT22;3369;49.906;8.598;2024-02-14T13:57:50;10.50;99.90
6666;DHT22;3369;49.906;8.598;2024-02-14T14:00:16;10.50;99.90
6666;DHT22;3369;49.906;8.598;2024-02-14T14:02:42;10.60;99.90
6666;DHT22;3369;49.906;8.598;2024-02-14T14:05:08;10.60;99.90
6666;DHT22;3369;49.906;8.598;2024-02-14T14:07:41;10.60;99.90
6666;DHT22;3369;49.906;8.598;2024-02-14T14:10:08;10.50;99.90
6666;DHT22;3369;49.906;8.598;2024-02-14T14:12:37;10.50;99.90
6666;DHT22;3369;49.906;8.598;2024-02-14T14:15:04;10.40;99.90
6666;DHT22;3369;49.906;8.598;2024-02-14T14:17:30;10.40;99.90
6666;DHT22;3369;49.906;8.598;2024-02-14T14:19:55;10.40;99.90
6666;DHT22;3369;49.906;8.598;2024-02-14T14:22:21;10.50;99.90
6666;DHT22;3369;49.906;8.598;2024-02-14T14:24:47;10.50;99.90
6666;DHT22;3369;49.906;8.598;2024-02-14T14:27:13;10.50;99.90
6666;DHT22;3369;49.906;8.598;2024-02-14T14:29:43;10.40;99.90
6666;DHT22;3369;49.906;8.598;2024-02-14T14:32:09;10.50;99.90
6666;DHT22;3369;49.906;8.598;2024-02-14T14:34:35;10.50;99.90
6666;DHT22;3369;49.906;8.598;2024-02-14T14:37:02;10.50;99.90
6666;DHT22;3369;49.906;8.598;2024-02-14T14:39:28;10.50;99.90
6666;DHT22;3369;49.906;8.598;2024-02-14T14:41:53;10.40;99.90
6666;DHT22;3369;49.906;8.598;2024-02-14T14:44:23;10.50;99.90
6666;DHT22;3369;49.906;8.598;2024-02-14T14:46:49;10.50;99.90
6666;DHT22;3369;49.906;8.598;2024-02-14T14:49:15;10.50;99.90
6666;DHT22;3369;49.906;8.598;2024-02-14T14:51:40;10.50;99.90
6666;DHT22;3369;49.906;8.598;2024-02-14T14:54:06;10.60;99.90
6666;DHT22;3369;49.906;8.598;2024-02-14T14:56:32;10.60;99.90
6666;DHT22;3369;49.906;8.598;2024-02-14T14:58:57;10.50;99.90
6666;DHT22;3369;49.906;8.598;2024-02-14T15:01:25;10.50;99.90
6666;DHT22;3369;49.906;8.598;2024-02-14T15:03:53;10.50;99.90
6666;DHT22;3369;49.906;8.598;2024-02-14T15:06:19;10.50;99.90
6666;DHT22;3369;49.906;8.598;2024-02-14T15:08:44;10.40;99.90
6666;DHT22;3369;49.906;8.598;2024-02-14T15:11:11;10.40;99.90
6666;DHT22;3369;49.906;8.598;2024-02-14T15:13:40;10.40;99.90
6666;DHT22;3369;49.906;8.598;2024-02-14T15:16:06;10.40;99.90
6666;DHT22;3369;49.906;8.598;2024-02-14T15:18:34;10.30;99.90
6666;DHT22;3369;49.906;8.598;2024-02-14T15:20:59;10.40;99.90
6666;DHT22;3369;49.906;8.598;2024-02-14T15:23:25;10.30;99.90
6666;DHT22;3369;49.906;8.598;2024-02-14T15:25:51;10.30;99.90
6666;DHT22;3369;49.906;8.598;2024-02-14T15:28:17;10.30;99.90
6666;DHT22;3369;49.906;8.598;2024-02-14T15:30:51;10.20;99.90
6666;DHT22;3369;49.906;8.598;2024-02-14T15:33:36;10.20;99.90
6666;DHT22;3369;49.906;8.598;2024-02-14T15:36:01;10.20;99.90
6666;DHT22;3369;49.906;8.598;2024-02-14T15:38:27;10.20;99.90
6666;DHT22;3369;49.906;8.598;2024-02-14T15:40:54;10.20;99.90
6666;DHT22;3369;49.906;8.598;2024-02-14T15:43:26;10.20;99.90
6666;DHT22;3369;49.906;8.598;2024-02-14T15:45:52;10.20;99.90
6666;DHT22;3369;49.906;8.598;2024-02-14T15:48:17;10.10;99.90
6666;DHT22;3369;49.906;8.598;2024-02-14T15:50:44;10.10;99.90
6666;DHT22;3369;49.906;8.598;2024-02-14T15:53:14;10.10;99.90
6666;DHT22;3369;49.906;8.598;2024-02-14T15:55:40;10.10;99.90
6666;DHT22;3369;49.906;8.598;2024-02-14T15:58:06;10.10;99.90
6666;DHT22;3369;49.906;8.598;2024-02-14T16:00:34;10.20;99.90
6666;DHT22;3369;49.906;8.598;2024-02-14T16:03:00;10.10;99.90
6666;DHT22;3369;49.906;8.598;2024-02-14T16:05:27;10.10;99.90
6666;DHT22;3369;49.906;8.598;2024-02-14T16:07:53;10.20;99.90